sensor_id;sensor_type;location;lat;lon;timestamp;P1;durP1;ratioP1;P2;durP2;ratioP2
13419;SDS011;6781;58.440;15.470;2023-06-22T00:01:16;10.00;;;8.95;;
13419;SDS011;6781;58.440;15.470;2023-06-22T00:03:43;9.30;;;8.35;;
13419;SDS011;6781;58.440;15.470;2023-06-22T00:06:10;9.75;;;8.77;;
13419;SDS011;6781;58.440;15.470;2023-06-22T00:08:38;10.15;;;8.38;;
13419;SDS011;6781;58.440;15.470;2023-06-22T00:11:05;9.48;;;8.43;;
13419;SDS011;6781;58.440;15.470;2023-06-22T00:13:32;9.57;;;8.68;;
13419;SDS011;6781;58.440;15.470;2023-06-22T00:15:59;9.25;;;8.25;;
13419;SDS011;6781;58.440;15.470;2023-06-22T00:18:26;10.50;;;8.18;;
13419;SDS011;6781;58.440;15.470;2023-06-22T00:20:55;8.98;;;8.07;;
13419;SDS011;6781;58.440;15.470;2023-06-22T00:23:26;9.02;;;7.93;;
13419;SDS011;6781;58.440;15.470;2023-06-22T00:25:54;8.93;;;8.02;;
13419;SDS011;6781;58.440;15.470;2023-06-22T00:28:21;9.93;;;6.72;;
13419;SDS011;6781;58.440;15.470;2023-06-22T00:30:49;8.48;;;7.35;;
13419;SDS011;6781;58.440;15.470;2023-06-22T00:33:16;8.82;;;7.93;;
13419;SDS011;6781;58.440;15.470;2023-06-22T00:35:43;9.43;;;7.97;;
13419;SDS011;6781;58.440;15.470;2023-06-22T00:38:10;8.43;;;7.63;;
13419;SDS011;6781;58.440;15.470;2023-06-22T00:40:37;7.90;;;7.20;;
13419;SDS011;6781;58.440;15.470;2023-06-22T00:43:06;7.90;;;7.20;;
13419;SDS011;6781;58.440;15.470;2023-06-22T00:45:35;10.27;;;7.05;;
13419;SDS011;6781;58.440;15.470;2023-06-22T00:48:03;7.60;;;6.90;;
13419;SDS011;6781;58.440;15.470;2023-06-22T00:50:32;10.85;;;7.53;;
13419;SDS011;6781;58.440;15.470;2023-06-22T00:53:03;6.45;;;5.60;;
13419;SDS011;6781;58.440;15.470;2023-06-22T00:55:33;9.52;;;5.82;;
13419;SDS011;6781;58.440;15.470;2023-06-22T00:58:04;7.10;;;5.38;;
13419;SDS011;6781;58.440;15.470;2023-06-22T01:00:35;6.28;;;5.15;;
13419;SDS011;6781;58.440;15.470;2023-06-22T01:03:03;6.05;;;5.45;;
13419;SDS011;6781;58.440;15.470;2023-06-22T01:05:33;8.55;;;5.90;;
13419;SDS011;6781;58.440;15.470;2023-06-22T01:08:05;6.03;;;5.43;;
13419;SDS011;6781;58.440;15.470;2023-06-22T01:10:40;5.82;;;5.22;;
13419;SDS011;6781;58.440;15.470;2023-06-22T01:13:14;6.15;;;5.55;;
13419;SDS011;6781;58.440;15.470;2023-06-22T01:15:49;6.55;;;5.65;;
13419;SDS011;6781;58.440;15.470;2023-06-22T01:18:21;6.85;;;5.13;;
13419;SDS011;6781;58.440;15.470;2023-06-22T01:20:51;5.68;;;4.90;;
13419;SDS011;6781;58.440;15.470;2023-06-22T01:23:22;8.10;;;4.55;;
13419;SDS011;6781;58.440;15.470;2023-06-22T01:25:57;4.40;;;4.00;;
13419;SDS011;6781;58.440;15.470;2023-06-22T01:28:38;3.83;;;3.50;;
13419;SDS011;6781;58.440;15.470;2023-06-22T01:31:08;4.10;;;3.70;;
13419;SDS011;6781;58.440;15.470;2023-06-22T01:33:40;5.10;;;3.88;;
13419;SDS011;6781;58.440;15.470;2023-06-22T01:36:09;4.80;;;3.90;;
13419;SDS011;6781;58.440;15.470;2023-06-22T01:38:37;6.72;;;4.10;;
13419;SDS011;6781;58.440;15.470;2023-06-22T01:41:05;4.40;;;3.90;;
13419;SDS011;6781;58.440;15.470;2023-06-22T01:43:32;4.97;;;3.97;;
13419;SDS011;6781;58.440;15.470;2023-06-22T01:46:04;4.22;;;3.90;;
13419;SDS011;6781;58.440;15.470;2023-06-22T01:48:31;5.00;;;3.55;;
13419;SDS011;6781;58.440;15.470;2023-06-22T01:50:59;7.20;;;3.90;;
13419;SDS011;6781;58.440;15.470;2023-06-22T01:53:26;4.15;;;3.22;;
13419;SDS011;6781;58.440;15.470;2023-06-22T01:55:53;4.38;;;3.30;;
13419;SDS011;6781;58.440;15.470;2023-06-22T01:58:21;3.65;;;3.35;;
13419;SDS011;6781;58.440;15.470;2023-06-22T02:00:53;3.72;;;3.40;;
13419;SDS011;6781;58.440;15.470;2023-06-22T02:03:28;6.07;;;3.85;;
13419;SDS011;6781;58.440;15.470;2023-06-22T02:08:35;3.72;;;3.42;;
13419;SDS011;6781;58.440;15.470;2023-06-22T02:11:07;4.68;;;3.83;;
13419;SDS011;6781;58.440;15.470;2023-06-22T02:13:36;5.18;;;3.47;;
13419;SDS011;6781;58.440;15.470;2023-06-22T02:16:07;7.03;;;3.95;;
13419;SDS011;6781;58.440;15.470;2023-06-22T02:18:36;3.33;;;3.05;;
13419;SDS011;6781;58.440;15.470;2023-06-22T02:21:05;7.68;;;3.88;;
13419;SDS011;6781;58.440;15.470;2023-06-22T02:23:32;4.82;;;3.70;;
13419;SDS011;6781;58.440;15.470;2023-06-22T02:26:00;3.85;;;3.45;;
13419;SDS011;6781;58.440;15.470;2023-06-22T02:28:28;6.47;;;3.72;;
13419;SDS011;6781;58.440;15.470;2023-06-22T02:30:55;4.47;;;3.50;;
13419;SDS011;6781;58.440;15.470;2023-06-22T02:33:22;4.60;;;3.60;;
13419;SDS011;6781;58.440;15.470;2023-06-22T02:35:51;5.88;;;3.72;;
13419;SDS011;6781;58.440;15.470;2023-06-22T02:38:20;6.22;;;3.72;;
13419;SDS011;6781;58.440;15.470;2023-06-22T02:40:49;4.43;;;3.30;;
13419;SDS011;6781;58.440;15.470;2023-06-22T02:43:16;4.85;;;3.67;;
13419;SDS011;6781;58.440;15.470;2023-06-22T02:45:43;3.70;;;3.40;;
13419;SDS011;6781;58.440;15.470;2023-06-22T02:48:10;5.90;;;3.10;;
13419;SDS011;6781;58.440;15.470;2023-06-22T02:50:41;5.22;;;3.58;;
13419;SDS011;6781;58.440;15.470;2023-06-22T02:53:09;5.50;;;3.78;;
13419;SDS011;6781;58.440;15.470;2023-06-22T02:55:36;4.93;;;3.42;;
13419;SDS011;6781;58.440;15.470;2023-06-22T02:58:05;6.88;;;3.80;;
13419;SDS011;6781;58.440;15.470;2023-06-22T03:00:32;5.93;;;3.67;;
13419;SDS011;6781;58.440;15.470;2023-06-22T03:02:59;4.97;;;3.90;;
13419;SDS011;6781;58.440;15.470;2023-06-22T03:05:26;5.25;;;3.72;;
13419;SDS011;6781;58.440;15.470;2023-06-22T03:07:53;4.13;;;3.75;;
13419;SDS011;6781;58.440;15.470;2023-06-22T03:10:21;5.80;;;3.70;;
13419;SDS011;6781;58.440;15.470;2023-06-22T03:12:49;5.10;;;4.15;;
13419;SDS011;6781;58.440;15.470;2023-06-22T03:15:16;5.38;;;3.88;;
13419;SDS011;6781;58.440;15.470;2023-06-22T03:17:43;4.47;;;3.85;;
13419;SDS011;6781;58.440;15.470;2023-06-22T03:20:11;6.65;;;4.10;;
13419;SDS011;6781;58.440;15.470;2023-06-22T03:22:38;5.38;;;4.03;;
13419;SDS011;6781;58.440;15.470;2023-06-22T03:25:07;6.57;;;4.70;;
13419;SDS011;6781;58.440;15.470;2023-06-22T03:27:40;4.72;;;4.22;;
13419;SDS011;6781;58.440;15.470;2023-06-22T03:30:07;9.15;;;3.72;;
13419;SDS011;6781;58.440;15.470;2023-06-22T03:32:36;8.63;;;4.35;;
13419;SDS011;6781;58.440;15.470;2023-06-22T03:35:04;6.18;;;4.20;;
13419;SDS011;6781;58.440;15.470;2023-06-22T03:37:31;4.88;;;4.30;;
13419;SDS011;6781;58.440;15.470;2023-06-22T03:39:59;6.05;;;3.97;;
13419;SDS011;6781;58.440;15.470;2023-06-22T03:42:26;6.40;;;4.57;;
13419;SDS011;6781;58.440;15.470;2023-06-22T03:44:54;7.25;;;4.25;;
13419;SDS011;6781;58.440;15.470;2023-06-22T03:47:21;5.25;;;4.00;;
13419;SDS011;6781;58.440;15.470;2023-06-22T03:49:48;5.82;;;4.07;;
13419;SDS011;6781;58.440;15.470;2023-06-22T03:52:20;6.20;;;4.30;;
13419;SDS011;6781;58.440;15.470;2023-06-22T03:54:47;6.28;;;4.15;;
13419;SDS011;6781;58.440;15.470;2023-06-22T03:57:14;5.82;;;4.20;;
13419;SDS011;6781;58.440;15.470;2023-06-22T03:59:41;6.63;;;4.47;;
13419;SDS011;6781;58.440;15.470;2023-06-22T04:02:10;4.93;;;4.43;;
13419;SDS011;6781;58.440;15.470;2023-06-22T04:04:37;6.15;;;4.07;;
13419;SDS011;6781;58.440;15.470;2023-06-22T04:07:04;8.00;;;4.40;;
13419;SDS011;6781;58.440;15.470;2023-06-22T04:09:31;6.93;;;3.95;;
13419;SDS011;6781;58.440;15.470;2023-06-22T04:11:58;5.95;;;3.83;;
13419;SDS011;6781;58.440;15.470;2023-06-22T04:14:25;5.57;;;4.32;;
13419;SDS011;6781;58.440;15.470;2023-06-22T04:16:52;5.57;;;4.40;;
13419;SDS011;6781;58.440;15.470;2023-06-22T04:19:21;5.85;;;4.30;;
13419;SDS011;6781;58.440;15.470;2023-06-22T04:21:48;5.50;;;4.60;;
13419;SDS011;6781;58.440;15.470;2023-06-22T04:24:15;5.35;;;4.03;;
13419;SDS011;6781;58.440;15.470;2023-06-22T04:26:42;4.88;;;4.38;;
13419;SDS011;6781;58.440;15.470;2023-06-22T04:29:13;4.70;;;4.25;;
13419;SDS011;6781;58.440;15.470;2023-06-22T04:31:40;8.18;;;4.18;;
13419;SDS011;6781;58.440;15.470;2023-06-22T04:34:07;5.15;;;4.65;;
13419;SDS011;6781;58.440;15.470;2023-06-22T04:36:36;6.85;;;4.60;;
13419;SDS011;6781;58.440;15.470;2023-06-22T04:39:05;5.05;;;4.38;;
13419;SDS011;6781;58.440;15.470;2023-06-22T04:41:34;5.95;;;4.78;;
13419;SDS011;6781;58.440;15.470;2023-06-22T04:44:11;5.75;;;4.40;;
13419;SDS011;6781;58.440;15.470;2023-06-22T04:46:39;6.90;;;4.47;;
13419;SDS011;6781;58.440;15.470;2023-06-22T04:49:06;6.88;;;4.47;;
13419;SDS011;6781;58.440;15.470;2023-06-22T04:51:40;5.43;;;4.30;;
13419;SDS011;6781;58.440;15.470;2023-06-22T04:54:08;5.63;;;4.00;;
13419;SDS011;6781;58.440;15.470;2023-06-22T04:56:36;6.28;;;4.38;;
13419;SDS011;6781;58.440;15.470;2023-06-22T04:59:06;5.40;;;4.45;;
13419;SDS011;6781;58.440;15.470;2023-06-22T05:01:33;6.07;;;4.20;;
13419;SDS011;6781;58.440;15.470;2023-06-22T05:04:01;5.00;;;4.50;;
13419;SDS011;6781;58.440;15.470;2023-06-22T05:06:30;6.72;;;4.57;;
13419;SDS011;6781;58.440;15.470;2023-06-22T05:08:58;6.03;;;4.57;;
13419;SDS011;6781;58.440;15.470;2023-06-22T05:11:25;8.55;;;4.95;;
13419;SDS011;6781;58.440;15.470;2023-06-22T05:13:53;6.70;;;4.15;;
13419;SDS011;6781;58.440;15.470;2023-06-22T05:16:20;5.38;;;4.63;;
13419;SDS011;6781;58.440;15.470;2023-06-22T05:18:50;6.72;;;4.32;;
13419;SDS011;6781;58.440;15.470;2023-06-22T05:21:21;6.40;;;4.43;;
13419;SDS011;6781;58.440;15.470;2023-06-22T05:23:48;6.88;;;4.43;;
13419;SDS011;6781;58.440;15.470;2023-06-22T05:26:17;5.65;;;4.45;;
13419;SDS011;6781;58.440;15.470;2023-06-22T05:28:44;7.13;;;4.28;;
13419;SDS011;6781;58.440;15.470;2023-06-22T05:31:12;8.25;;;5.38;;
13419;SDS011;6781;58.440;15.470;2023-06-22T05:33:40;6.82;;;4.30;;
13419;SDS011;6781;58.440;15.470;2023-06-22T05:36:07;7.53;;;4.35;;
13419;SDS011;6781;58.440;15.470;2023-06-22T05:38:35;5.68;;;4.40;;
13419;SDS011;6781;58.440;15.470;2023-06-22T05:41:02;6.70;;;4.65;;
13419;SDS011;6781;58.440;15.470;2023-06-22T05:43:31;10.50;;;5.00;;
13419;SDS011;6781;58.440;15.470;2023-06-22T05:45:59;7.18;;;4.43;;
13419;SDS011;6781;58.440;15.470;2023-06-22T05:48:26;6.15;;;4.60;;
13419;SDS011;6781;58.440;15.470;2023-06-22T05:50:54;6.95;;;5.03;;
13419;SDS011;6781;58.440;15.470;2023-06-22T05:53:21;8.05;;;5.18;;
13419;SDS011;6781;58.440;15.470;2023-06-22T05:55:48;5.82;;;4.20;;
13419;SDS011;6781;58.440;15.470;2023-06-22T05:58:17;5.63;;;4.22;;
13419;SDS011;6781;58.440;15.470;2023-06-22T06:00:45;6.65;;;4.28;;
13419;SDS011;6781;58.440;15.470;2023-06-22T06:03:13;6.10;;;4.40;;
13419;SDS011;6781;58.440;15.470;2023-06-22T06:05:42;7.30;;;4.65;;
13419;SDS011;6781;58.440;15.470;2023-06-22T06:08:10;7.57;;;4.57;;
13419;SDS011;6781;58.440;15.470;2023-06-22T06:10:37;5.57;;;4.30;;
13419;SDS011;6781;58.440;15.470;2023-06-22T06:13:05;4.70;;;4.22;;
13419;SDS011;6781;58.440;15.470;2023-06-22T06:15:32;6.55;;;4.78;;
13419;SDS011;6781;58.440;15.470;2023-06-22T06:18:01;5.70;;;4.65;;
13419;SDS011;6781;58.440;15.470;2023-06-22T06:20:30;6.57;;;4.60;;
13419;SDS011;6781;58.440;15.470;2023-06-22T06:22:57;6.43;;;4.40;;
13419;SDS011;6781;58.440;15.470;2023-06-22T06:25:24;6.00;;;4.30;;
13419;SDS011;6781;58.440;15.470;2023-06-22T06:27:51;5.25;;;4.18;;
13419;SDS011;6781;58.440;15.470;2023-06-22T06:30:19;5.47;;;4.20;;
13419;SDS011;6781;58.440;15.470;2023-06-22T06:32:47;7.90;;;4.25;;
13419;SDS011;6781;58.440;15.470;2023-06-22T06:35:16;6.85;;;4.30;;
13419;SDS011;6781;58.440;15.470;2023-06-22T06:37:44;5.35;;;4.00;;
13419;SDS011;6781;58.440;15.470;2023-06-22T06:40:12;5.75;;;4.40;;
13419;SDS011;6781;58.440;15.470;2023-06-22T06:42:40;4.45;;;3.70;;
13419;SDS011;6781;58.440;15.470;2023-06-22T06:45:10;5.40;;;4.00;;
13419;SDS011;6781;58.440;15.470;2023-06-22T06:47:37;5.15;;;4.00;;
13419;SDS011;6781;58.440;15.470;2023-06-22T06:50:05;5.28;;;4.25;;
13419;SDS011;6781;58.440;15.470;2023-06-22T06:52:34;4.85;;;4.07;;
13419;SDS011;6781;58.440;15.470;2023-06-22T06:55:01;10.25;;;4.10;;
13419;SDS011;6781;58.440;15.470;2023-06-22T06:57:30;9.82;;;4.38;;
13419;SDS011;6781;58.440;15.470;2023-06-22T06:59:57;6.55;;;4.10;;
13419;SDS011;6781;58.440;15.470;2023-06-22T07:02:25;5.97;;;3.78;;
13419;SDS011;6781;58.440;15.470;2023-06-22T07:04:53;8.23;;;4.53;;
13419;SDS011;6781;58.440;15.470;2023-06-22T07:07:25;4.41;;;3.91;;
13419;SDS011;6781;58.440;15.470;2023-06-22T07:09:53;6.88;;;4.20;;
13419;SDS011;6781;58.440;15.470;2023-06-22T07:12:20;7.65;;;4.07;;
13419;SDS011;6781;58.440;15.470;2023-06-22T07:14:47;5.50;;;4.07;;
13419;SDS011;6781;58.440;15.470;2023-06-22T07:17:16;5.95;;;4.28;;
13419;SDS011;6781;58.440;15.470;2023-06-22T07:19:43;7.15;;;3.95;;
13419;SDS011;6781;58.440;15.470;2023-06-22T07:22:10;5.75;;;3.60;;
13419;SDS011;6781;58.440;15.470;2023-06-22T07:24:37;4.47;;;3.60;;
13419;SDS011;6781;58.440;15.470;2023-06-22T07:27:06;4.72;;;3.42;;
13419;SDS011;6781;58.440;15.470;2023-06-22T07:29:33;5.55;;;3.40;;
13419;SDS011;6781;58.440;15.470;2023-06-22T07:32:00;5.35;;;3.20;;
13419;SDS011;6781;58.440;15.470;2023-06-22T07:34:29;5.35;;;3.58;;
13419;SDS011;6781;58.440;15.470;2023-06-22T07:36:57;5.20;;;3.72;;
13419;SDS011;6781;58.440;15.470;2023-06-22T07:39:23;4.95;;;3.28;;
13419;SDS011;6781;58.440;15.470;2023-06-22T07:41:51;6.43;;;3.50;;
13419;SDS011;6781;58.440;15.470;2023-06-22T07:44:20;6.30;;;3.25;;
13419;SDS011;6781;58.440;15.470;2023-06-22T07:46:47;4.38;;;3.10;;
13419;SDS011;6781;58.440;15.470;2023-06-22T07:49:14;4.85;;;3.53;;
13419;SDS011;6781;58.440;15.470;2023-06-22T07:51:41;6.43;;;3.20;;
13419;SDS011;6781;58.440;15.470;2023-06-22T07:54:09;6.22;;;3.67;;
13419;SDS011;6781;58.440;15.470;2023-06-22T07:56:40;3.45;;;3.15;;
13419;SDS011;6781;58.440;15.470;2023-06-22T07:59:08;6.38;;;3.50;;
13419;SDS011;6781;58.440;15.470;2023-06-22T08:01:37;5.53;;;3.38;;
13419;SDS011;6781;58.440;15.470;2023-06-22T08:04:04;5.80;;;3.20;;
13419;SDS011;6781;58.440;15.470;2023-06-22T08:06:31;5.80;;;3.08;;
13419;SDS011;6781;58.440;15.470;2023-06-22T08:09:02;6.03;;;3.40;;
13419;SDS011;6781;58.440;15.470;2023-06-22T08:11:31;4.05;;;3.25;;
13419;SDS011;6781;58.440;15.470;2023-06-22T08:13:59;4.88;;;3.58;;
13419;SDS011;6781;58.440;15.470;2023-06-22T08:16:26;5.65;;;3.65;;
13419;SDS011;6781;58.440;15.470;2023-06-22T08:18:55;4.88;;;3.03;;
13419;SDS011;6781;58.440;15.470;2023-06-22T08:21:22;3.75;;;3.30;;
13419;SDS011;6781;58.440;15.470;2023-06-22T08:23:49;5.95;;;3.22;;
13419;SDS011;6781;58.440;15.470;2023-06-22T08:26:16;4.95;;;3.10;;
13419;SDS011;6781;58.440;15.470;2023-06-22T08:28:44;6.13;;;3.40;;
13419;SDS011;6781;58.440;15.470;2023-06-22T08:31:15;5.80;;;3.03;;
13419;SDS011;6781;58.440;15.470;2023-06-22T08:33:43;6.47;;;3.30;;
13419;SDS011;6781;58.440;15.470;2023-06-22T08:36:13;3.92;;;3.00;;
13419;SDS011;6781;58.440;15.470;2023-06-22T08:38:41;7.50;;;3.75;;
13419;SDS011;6781;58.440;15.470;2023-06-22T08:41:08;5.88;;;3.30;;
13419;SDS011;6781;58.440;15.470;2023-06-22T08:43:35;5.80;;;3.08;;
13419;SDS011;6781;58.440;15.470;2023-06-22T08:46:02;4.57;;;3.28;;
13419;SDS011;6781;58.440;15.470;2023-06-22T08:48:29;4.47;;;3.70;;
13419;SDS011;6781;58.440;15.470;2023-06-22T08:50:56;3.75;;;3.35;;
13419;SDS011;6781;58.440;15.470;2023-06-22T08:53:25;4.82;;;3.20;;
13419;SDS011;6781;58.440;15.470;2023-06-22T08:55:51;6.60;;;3.78;;
13419;SDS011;6781;58.440;15.470;2023-06-22T08:58:19;3.70;;;3.30;;
13419;SDS011;6781;58.440;15.470;2023-06-22T09:00:46;4.65;;;3.10;;
13419;SDS011;6781;58.440;15.470;2023-06-22T09:03:13;4.50;;;3.47;;
13419;SDS011;6781;58.440;15.470;2023-06-22T09:05:40;4.28;;;2.95;;
13419;SDS011;6781;58.440;15.470;2023-06-22T09:08:07;3.28;;;2.80;;
13419;SDS011;6781;58.440;15.470;2023-06-22T09:10:35;4.45;;;3.28;;
13419;SDS011;6781;58.440;15.470;2023-06-22T09:13:03;4.47;;;3.10;;
13419;SDS011;6781;58.440;15.470;2023-06-22T09:15:30;5.68;;;4.00;;
13419;SDS011;6781;58.440;15.470;2023-06-22T09:17:57;4.78;;;3.30;;
13419;SDS011;6781;58.440;15.470;2023-06-22T09:20:24;4.70;;;3.08;;
13419;SDS011;6781;58.440;15.470;2023-06-22T09:22:51;3.20;;;2.83;;
13419;SDS011;6781;58.440;15.470;2023-06-22T09:25:18;3.20;;;2.70;;
13419;SDS011;6781;58.440;15.470;2023-06-22T09:27:47;5.80;;;3.20;;
13419;SDS011;6781;58.440;15.470;2023-06-22T09:30:14;5.22;;;3.35;;
13419;SDS011;6781;58.440;15.470;2023-06-22T09:32:41;5.15;;;3.42;;
13419;SDS011;6781;58.440;15.470;2023-06-22T09:35:09;5.00;;;3.35;;
13419;SDS011;6781;58.440;15.470;2023-06-22T09:37:38;6.13;;;2.97;;
13419;SDS011;6781;58.440;15.470;2023-06-22T09:40:05;4.53;;;3.05;;
13419;SDS011;6781;58.440;15.470;2023-06-22T09:42:36;4.07;;;2.88;;
13419;SDS011;6781;58.440;15.470;2023-06-22T09:45:05;4.80;;;3.10;;
13419;SDS011;6781;58.440;15.470;2023-06-22T09:47:33;3.78;;;2.80;;
13419;SDS011;6781;58.440;15.470;2023-06-22T09:50:00;3.40;;;3.00;;
13419;SDS011;6781;58.440;15.470;2023-06-22T09:52:27;4.10;;;2.60;;
13419;SDS011;6781;58.440;15.470;2023-06-22T09:54:54;4.45;;;2.92;;
13419;SDS011;6781;58.440;15.470;2023-06-22T09:57:21;5.03;;;2.85;;
13419;SDS011;6781;58.440;15.470;2023-06-22T09:59:48;3.50;;;2.97;;
13419;SDS011;6781;58.440;15.470;2023-06-22T10:02:16;5.03;;;2.90;;
13419;SDS011;6781;58.440;15.470;2023-06-22T10:04:46;4.45;;;2.60;;
13419;SDS011;6781;58.440;15.470;2023-06-22T10:07:13;3.85;;;2.90;;
13419;SDS011;6781;58.440;15.470;2023-06-22T10:09:40;5.43;;;2.92;;
13419;SDS011;6781;58.440;15.470;2023-06-22T10:12:09;6.97;;;3.20;;
13419;SDS011;6781;58.440;15.470;2023-06-22T10:14:37;3.53;;;2.83;;
13419;SDS011;6781;58.440;15.470;2023-06-22T10:17:04;3.03;;;2.63;;
13419;SDS011;6781;58.440;15.470;2023-06-22T10:19:34;6.72;;;2.60;;
13419;SDS011;6781;58.440;15.470;2023-06-22T10:22:03;4.30;;;2.90;;
13419;SDS011;6781;58.440;15.470;2023-06-22T10:24:30;3.92;;;2.80;;
13419;SDS011;6781;58.440;15.470;2023-06-22T10:26:57;4.45;;;2.80;;
13419;SDS011;6781;58.440;15.470;2023-06-22T10:29:24;5.03;;;2.80;;
13419;SDS011;6781;58.440;15.470;2023-06-22T10:31:51;3.13;;;2.55;;
13419;SDS011;6781;58.440;15.470;2023-06-22T10:34:18;4.55;;;2.60;;
13419;SDS011;6781;58.440;15.470;2023-06-22T10:36:47;3.83;;;2.50;;
13419;SDS011;6781;58.440;15.470;2023-06-22T10:39:14;3.25;;;2.95;;
13419;SDS011;6781;58.440;15.470;2023-06-22T10:41:41;2.92;;;2.70;;
13419;SDS011;6781;58.440;15.470;2023-06-22T10:44:08;4.15;;;2.53;;
13419;SDS011;6781;58.440;15.470;2023-06-22T10:46:36;3.78;;;2.70;;
13419;SDS011;6781;58.440;15.470;2023-06-22T10:49:03;3.63;;;2.63;;
13419;SDS011;6781;58.440;15.470;2023-06-22T10:51:30;3.00;;;2.67;;
13419;SDS011;6781;58.440;15.470;2023-06-22T10:53:58;2.47;;;2.20;;
13419;SDS011;6781;58.440;15.470;2023-06-22T10:56:26;3.60;;;2.42;;
13419;SDS011;6781;58.440;15.470;2023-06-22T10:58:52;3.95;;;2.30;;
13419;SDS011;6781;58.440;15.470;2023-06-22T11:01:20;3.30;;;2.78;;
13419;SDS011;6781;58.440;15.470;2023-06-22T11:03:47;3.25;;;2.63;;
13419;SDS011;6781;58.440;15.470;2023-06-22T11:06:13;4.50;;;2.85;;
13419;SDS011;6781;58.440;15.470;2023-06-22T11:08:43;3.75;;;2.83;;
13419;SDS011;6781;58.440;15.470;2023-06-22T11:11:12;2.90;;;2.60;;
13419;SDS011;6781;58.440;15.470;2023-06-22T11:13:39;3.55;;;2.50;;
13419;SDS011;6781;58.440;15.470;2023-06-22T11:16:06;5.32;;;2.17;;
13419;SDS011;6781;58.440;15.470;2023-06-22T11:18:33;2.92;;;2.10;;
13419;SDS011;6781;58.440;15.470;2023-06-22T11:21:00;4.45;;;2.85;;
13419;SDS011;6781;58.440;15.470;2023-06-22T11:23:27;3.10;;;2.30;;
13419;SDS011;6781;58.440;15.470;2023-06-22T11:25:55;2.90;;;2.30;;
13419;SDS011;6781;58.440;15.470;2023-06-22T11:28:24;2.75;;;2.53;;
13419;SDS011;6781;58.440;15.470;2023-06-22T11:30:51;3.95;;;2.60;;
13419;SDS011;6781;58.440;15.470;2023-06-22T11:33:18;3.63;;;2.28;;
13419;SDS011;6781;58.440;15.470;2023-06-22T11:35:45;3.50;;;2.33;;
13419;SDS011;6781;58.440;15.470;2023-06-22T11:38:12;4.07;;;2.35;;
13419;SDS011;6781;58.440;15.470;2023-06-22T11:40:39;3.80;;;2.83;;
13419;SDS011;6781;58.440;15.470;2023-06-22T11:43:06;5.43;;;2.85;;
13419;SDS011;6781;58.440;15.470;2023-06-22T11:45:35;3.17;;;2.40;;
13419;SDS011;6781;58.440;15.470;2023-06-22T11:48:02;3.80;;;2.58;;
13419;SDS011;6781;58.440;15.470;2023-06-22T11:50:30;2.80;;;2.55;;
13419;SDS011;6781;58.440;15.470;2023-06-22T11:53:01;3.58;;;2.60;;
13419;SDS011;6781;58.440;15.470;2023-06-22T11:55:28;2.97;;;2.63;;
13419;SDS011;6781;58.440;15.470;2023-06-22T11:57:58;4.32;;;2.72;;
13419;SDS011;6781;58.440;15.470;2023-06-22T12:00:29;3.47;;;2.42;;
13419;SDS011;6781;58.440;15.470;2023-06-22T12:02:59;4.80;;;2.50;;
13419;SDS011;6781;58.440;15.470;2023-06-22T12:05:26;2.55;;;2.28;;
13419;SDS011;6781;58.440;15.470;2023-06-22T12:07:53;2.85;;;2.50;;
13419;SDS011;6781;58.440;15.470;2023-06-22T12:10:20;3.55;;;2.90;;
13419;SDS011;6781;58.440;15.470;2023-06-22T12:12:48;4.50;;;2.53;;
13419;SDS011;6781;58.440;15.470;2023-06-22T12:15:15;3.38;;;2.40;;
13419;SDS011;6781;58.440;15.470;2023-06-22T12:17:42;4.13;;;2.40;;
13419;SDS011;6781;58.440;15.470;2023-06-22T12:20:11;5.70;;;2.40;;
13419;SDS011;6781;58.440;15.470;2023-06-22T12:22:38;3.67;;;2.63;;
13419;SDS011;6781;58.440;15.470;2023-06-22T12:25:05;3.88;;;2.17;;
13419;SDS011;6781;58.440;15.470;2023-06-22T12:27:33;3.25;;;2.70;;
13419;SDS011;6781;58.440;15.470;2023-06-22T12:30:00;2.90;;;2.55;;
13419;SDS011;6781;58.440;15.470;2023-06-22T12:32:28;2.60;;;2.30;;
13419;SDS011;6781;58.440;15.470;2023-06-22T12:34:55;2.63;;;2.30;;
13419;SDS011;6781;58.440;15.470;2023-06-22T12:37:26;3.42;;;2.45;;
13419;SDS011;6781;58.440;15.470;2023-06-22T12:39:54;3.53;;;2.20;;
13419;SDS011;6781;58.440;15.470;2023-06-22T12:42:21;2.38;;;2.17;;
13419;SDS011;6781;58.440;15.470;2023-06-22T12:44:51;4.88;;;2.67;;
13419;SDS011;6781;58.440;15.470;2023-06-22T12:47:21;2.58;;;2.35;;
13419;SDS011;6781;58.440;15.470;2023-06-22T12:49:50;2.65;;;2.45;;
13419;SDS011;6781;58.440;15.470;2023-06-22T12:52:17;2.58;;;2.15;;
13419;SDS011;6781;58.440;15.470;2023-06-22T12:54:46;2.70;;;2.33;;
13419;SDS011;6781;58.440;15.470;2023-06-22T12:57:13;2.53;;;2.28;;
13419;SDS011;6781;58.440;15.470;2023-06-22T12:59:40;2.67;;;2.10;;
13419;SDS011;6781;58.440;15.470;2023-06-22T13:02:07;2.97;;;2.35;;
13419;SDS011;6781;58.440;15.470;2023-06-22T13:04:34;2.83;;;2.35;;
13419;SDS011;6781;58.440;15.470;2023-06-22T13:07:01;2.30;;;1.73;;
13419;SDS011;6781;58.440;15.470;2023-06-22T13:09:28;2.50;;;2.30;;
13419;SDS011;6781;58.440;15.470;2023-06-22T13:11:57;2.22;;;2.03;;
13419;SDS011;6781;58.440;15.470;2023-06-22T13:14:24;2.17;;;1.75;;
13419;SDS011;6781;58.440;15.470;2023-06-22T13:16:51;3.60;;;2.28;;
13419;SDS011;6781;58.440;15.470;2023-06-22T13:19:18;4.78;;;2.60;;
13419;SDS011;6781;58.440;15.470;2023-06-22T13:21:46;2.53;;;2.10;;
13419;SDS011;6781;58.440;15.470;2023-06-22T13:24:13;2.75;;;2.30;;
13419;SDS011;6781;58.440;15.470;2023-06-22T13:26:40;3.58;;;2.50;;
13419;SDS011;6781;58.440;15.470;2023-06-22T13:29:08;2.47;;;2.28;;
13419;SDS011;6781;58.440;15.470;2023-06-22T13:31:35;2.72;;;2.08;;
13419;SDS011;6781;58.440;15.470;2023-06-22T13:34:03;3.28;;;2.40;;
13419;SDS011;6781;58.440;15.470;2023-06-22T13:36:30;2.85;;;2.45;;
13419;SDS011;6781;58.440;15.470;2023-06-22T13:39:00;2.65;;;2.20;;
13419;SDS011;6781;58.440;15.470;2023-06-22T13:41:27;2.60;;;2.35;;
13419;SDS011;6781;58.440;15.470;2023-06-22T13:43:54;3.90;;;2.17;;
13419;SDS011;6781;58.440;15.470;2023-06-22T13:46:24;5.43;;;2.28;;
13419;SDS011;6781;58.440;15.470;2023-06-22T13:48:51;2.85;;;2.45;;
13419;SDS011;6781;58.440;15.470;2023-06-22T13:51:18;2.95;;;2.30;;
13419;SDS011;6781;58.440;15.470;2023-06-22T13:53:45;3.33;;;2.13;;
13419;SDS011;6781;58.440;15.470;2023-06-22T13:56:12;2.78;;;2.20;;
13419;SDS011;6781;58.440;15.470;2023-06-22T13:58:39;3.10;;;2.10;;
13419;SDS011;6781;58.440;15.470;2023-06-22T14:01:06;2.33;;;2.10;;
13419;SDS011;6781;58.440;15.470;2023-06-22T14:03:35;2.80;;;2.20;;
13419;SDS011;6781;58.440;15.470;2023-06-22T14:06:02;2.55;;;1.95;;
13419;SDS011;6781;58.440;15.470;2023-06-22T14:08:30;4.43;;;2.03;;
13419;SDS011;6781;58.440;15.470;2023-06-22T14:10:57;2.58;;;2.17;;
13419;SDS011;6781;58.440;15.470;2023-06-22T14:13:24;8.65;;;2.22;;
13419;SDS011;6781;58.440;15.470;2023-06-22T14:15:55;2.97;;;2.10;;
13419;SDS011;6781;58.440;15.470;2023-06-22T14:18:22;2.50;;;2.30;;
13419;SDS011;6781;58.440;15.470;2023-06-22T14:20:53;3.55;;;2.50;;
13419;SDS011;6781;58.440;15.470;2023-06-22T14:23:21;3.95;;;2.00;;
13419;SDS011;6781;58.440;15.470;2023-06-22T14:25:48;2.58;;;1.85;;
13419;SDS011;6781;58.440;15.470;2023-06-22T14:28:16;2.40;;;2.20;;
13419;SDS011;6781;58.440;15.470;2023-06-22T14:30:44;3.20;;;1.90;;
13419;SDS011;6781;58.440;15.470;2023-06-22T14:33:11;3.38;;;2.03;;
13419;SDS011;6781;58.440;15.470;2023-06-22T14:35:38;2.28;;;2.03;;
13419;SDS011;6781;58.440;15.470;2023-06-22T14:38:07;4.55;;;2.15;;
13419;SDS011;6781;58.440;15.470;2023-06-22T14:40:35;2.28;;;1.98;;
13419;SDS011;6781;58.440;15.470;2023-06-22T14:43:02;2.45;;;1.98;;
13419;SDS011;6781;58.440;15.470;2023-06-22T14:45:29;2.33;;;2.10;;
13419;SDS011;6781;58.440;15.470;2023-06-22T14:47:56;3.85;;;1.77;;
13419;SDS011;6781;58.440;15.470;2023-06-22T14:50:23;2.25;;;1.90;;
13419;SDS011;6781;58.440;15.470;2023-06-22T14:52:50;2.13;;;1.92;;
13419;SDS011;6781;58.440;15.470;2023-06-22T14:55:20;2.83;;;2.17;;